Terminal Aerodrome Forecast
Issued by NWS

Home | Current Version | Previous Version | Text Only | Print | Product List | Glossary On
Versions: 1 2 3 4 5 6 7 8 9 10 11 12 13 14
000
FTUS42 KMLB 312300 RRA
TAFTIX
TAF
KTIX 312346Z 0100/0124 13008KT P6SM SCT080
     FM011400 19005KT P6SM SCT022 SCT250
     FM011800 12009KT P6SM VCTS BKN030CB
      AMD NOT SKED 0101/0111=

USA.gov is the U.S. government's official web portal to all federal, state and local government web resources and services.